Time;durP1;ratioP1;P1;durP2;ratioP2;P2;SDS_P1;SDS_P2;PMS_P1;PMS_P2;Temp;Humidity;BMP_temperature;BMP_pressure;BME280_temperature;BME280_humidity;BME280_pressure;Samples;Min_cycle;Max_cycle;Signal;HPM_P1;HPM_P2
2022/11/22 00:02:19;;;;;;;3.50;2.60;;;15.70;58.00;;;;;;5054978;28;20210;-69
2022/11/22 00:04:45;;;;;;;2.53;2.03;;;15.70;58.10;;;;;;5055447;28;20171;-68
2022/11/22 00:07:10;;;;;;;2.33;2.13;;;15.70;58.20;;;;;;5055041;28;20171;-70
2022/11/22 00:09:36;;;;;;;2.22;1.80;;;15.60;58.20;;;;;;5053929;28;20203;-70
2022/11/22 00:12:01;;;;;;;2.35;2.15;;;15.60;58.10;;;;;;5055047;28;20250;-70
2022/11/22 00:14:27;;;;;;;2.20;2.00;;;15.60;58.20;;;;;;5054384;28;20262;-68
2022/11/22 00:16:53;;;;;;;3.60;2.63;;;15.60;58.20;;;;;;5054831;28;20175;-69
2022/11/22 00:19:18;;;;;;;2.50;1.98;;;15.60;58.20;;;;;;5055404;28;20179;-69
2022/11/22 00:21:44;;;;;;;2.60;2.10;;;15.60;58.30;;;;;;5054202;28;20266;-69
2022/11/22 00:24:11;;;;;;;3.08;2.45;;;15.60;58.20;;;;;;5055036;28;20179;-71
2022/11/22 00:26:37;;;;;;;2.17;1.98;;;15.60;58.20;;;;;;5054882;28;20184;-70
2022/11/22 00:29:02;;;;;;;3.83;2.17;;;15.60;58.20;;;;;;5054396;28;20175;-69
2022/11/22 00:31:28;;;;;;;2.50;2.20;;;15.60;58.30;;;;;;5055254;28;20626;-70
2022/11/22 00:33:53;;;;;;;2.28;2.13;;;15.60;58.30;;;;;;5054724;28;20629;-68
2022/11/22 00:36:19;;;;;;;3.13;2.42;;;15.60;58.30;;;;;;5054351;28;20262;-69
2022/11/22 00:38:44;;;;;;;1.88;1.77;;;15.50;58.40;;;;;;5054484;28;20171;-69
2022/11/22 00:41:10;;;;;;;3.13;1.95;;;15.50;58.40;;;;;;5054694;28;20254;-70
2022/11/22 00:43:35;;;;;;;2.38;2.17;;;15.50;58.40;;;;;;5053676;28;20207;-70
2022/11/22 00:46:01;;;;;;;2.47;2.13;;;15.50;58.30;;;;;;5054704;28;20187;-70
2022/11/22 00:48:26;;;;;;;2.15;1.95;;;15.50;58.40;;;;;;5054715;28;20183;-70
2022/11/22 00:50:52;;;;;;;2.95;2.25;;;15.50;58.40;;;;;;5053761;28;20261;-70
2022/11/22 00:53:17;;;;;;;1.90;1.70;;;15.50;58.40;;;;;;5054757;28;20270;-70
2022/11/22 00:55:44;;;;;;;3.55;2.13;;;15.50;58.40;;;;;;5054359;28;20199;-70
2022/11/22 00:58:10;;;;;;;2.78;2.47;;;15.50;58.40;;;;;;5053836;28;20183;-71
2022/11/22 01:00:35;;;;;;;2.13;1.92;;;15.40;58.40;;;;;;5054182;28;20167;-69
2022/11/22 01:03:01;;;;;;;1.92;1.80;;;15.50;58.50;;;;;;5054242;28;20225;-69
2022/11/22 01:05:26;;;;;;;2.13;1.70;;;15.40;58.40;;;;;;5053751;28;20179;-70
2022/11/22 01:07:52;;;;;;;2.05;1.95;;;15.40;58.40;;;;;;5052887;28;20178;-69
2022/11/22 01:10:18;;;;;;;2.38;2.17;;;15.40;58.40;;;;;;5054445;28;20179;-70
2022/11/22 01:12:43;;;;;;;3.38;2.42;;;15.40;58.50;;;;;;5053175;28;20183;-69
2022/11/22 01:15:09;;;;;;;2.30;2.00;;;15.40;58.50;;;;;;5053928;28;20633;-68
2022/11/22 01:17:34;;;;;;;2.47;1.80;;;15.40;58.50;;;;;;5053365;28;20178;-68
2022/11/22 01:20:00;;;;;;;2.42;2.00;;;15.40;58.60;;;;;;5054082;28;20661;-69
2022/11/22 01:22:25;;;;;;;2.65;1.80;;;15.40;58.50;;;;;;5053689;28;20210;-70
2022/11/22 01:24:51;;;;;;;2.85;1.98;;;15.40;58.60;;;;;;5053158;28;20198;-70
2022/11/22 01:27:16;;;;;;;2.00;1.67;;;15.40;58.60;;;;;;5053939;28;20266;-70
2022/11/22 01:29:42;;;;;;;2.65;2.17;;;15.40;58.60;;;;;;5053846;28;20178;-71
2022/11/22 01:32:07;;;;;;;2.08;1.85;;;15.40;58.60;;;;;;5053302;28;20170;-68
2022/11/22 01:34:33;;;;;;;2.05;1.92;;;15.40;58.60;;;;;;5053750;28;20228;-69
2022/11/22 01:36:58;;;;;;;3.20;1.92;;;15.30;58.60;;;;;;5054126;28;20173;-69
2022/11/22 01:39:24;;;;;;;3.90;2.10;;;15.30;58.60;;;;;;5053078;28;20175;-69
2022/11/22 01:41:49;;;;;;;1.85;1.75;;;15.30;58.70;;;;;;5053173;28;20575;-70
2022/11/22 01:44:19;;;;;;;2.38;1.70;;;15.30;58.70;;;;;;5053624;28;20175;-70
2022/11/22 01:46:44;;;;;;;2.03;1.92;;;15.40;58.80;;;;;;5052685;28;20181;-71
2022/11/22 01:49:13;;;;;;;2.10;1.67;;;15.30;58.70;;;;;;5053737;28;20607;-69
2022/11/22 01:51:41;;;;;;;2.53;2.13;;;15.30;58.80;;;;;;5052128;28;20591;-70
2022/11/22 01:54:12;;;;;;;2.05;1.80;;;15.30;58.80;;;;;;5051603;28;20179;-72
2022/11/22 01:56:38;;;;;;;1.90;1.63;;;15.30;58.80;;;;;;5051882;28;20178;-70
2022/11/22 01:59:06;;;;;;;2.22;1.75;;;15.30;58.80;;;;;;5052069;28;20179;-70
2022/11/22 02:01:32;;;;;;;2.10;1.90;;;15.30;58.90;;;;;;5052456;28;20653;-68
2022/11/22 02:03:57;;;;;;;2.10;1.80;;;15.30;58.80;;;;;;5052250;28;20708;-69
2022/11/22 02:06:23;;;;;;;3.63;2.10;;;15.30;58.90;;;;;;5052112;28;20192;-69
2022/11/22 02:09:04;;;;;;;2.83;2.00;;;15.20;58.80;;;;;;5051158;28;20189;-69
2022/11/22 02:11:30;;;;;;;2.15;1.83;;;15.20;59.40;;;;;;5052308;28;20167;-69
2022/11/22 02:13:55;;;;;;;1.92;1.83;;;15.20;58.80;;;;;;5052292;28;20177;-69
2022/11/22 02:16:21;;;;;;;2.22;2.03;;;15.30;58.90;;;;;;5051626;28;20215;-69
2022/11/22 02:18:46;;;;;;;2.20;2.00;;;15.20;58.80;;;;;;5051822;28;20179;-69
2022/11/22 02:21:12;;;;;;;2.60;1.92;;;15.20;58.90;;;;;;5052449;28;20175;-69
2022/11/22 02:23:59;;;;;;;1.95;1.77;;;15.20;58.90;;;;;;5052526;28;20661;-70
2022/11/22 02:26:28;;;;;;;2.08;1.75;;;15.20;59.00;;;;;;5052031;28;20222;-69
2022/11/22 02:28:54;;;;;;;2.35;1.70;;;15.20;59.00;;;;;;5051847;28;20665;-69
2022/11/22 02:31:41;;;;;;;2.20;1.80;;;15.20;59.00;;;;;;5051806;28;20206;-69
2022/11/22 02:34:07;;;;;;;2.10;2.00;;;15.20;59.00;;;;;;5052168;28;20668;-68
2022/11/22 02:36:36;;;;;;;2.63;1.92;;;15.30;59.10;;;;;;5052039;28;20190;-68
2022/11/22 02:39:02;;;;;;;1.98;1.73;;;15.20;59.00;;;;;;5051845;28;20179;-69
2022/11/22 02:41:27;;;;;;;2.15;1.70;;;15.20;59.10;;;;;;5051695;28;20555;-68
2022/11/22 02:43:53;;;;;;;2.38;1.95;;;15.20;59.10;;;;;;5050583;28;20210;-70
2022/11/22 02:46:21;;;;;;;2.30;1.88;;;15.20;59.10;;;;;;5051458;28;20534;-69
2022/11/22 02:48:47;;;;;;;1.77;1.67;;;15.20;59.10;;;;;;5052348;28;20189;-70
2022/11/22 02:51:15;;;;;;;2.25;1.77;;;15.10;59.00;;;;;;5052259;28;20171;-71
2022/11/22 02:53:45;;;;;;;2.47;1.80;;;15.20;59.10;;;;;;5052429;28;20638;-70
2022/11/22 02:56:10;;;;;;;1.60;1.50;;;15.10;59.10;;;;;;5052062;28;20719;-71
2022/11/22 02:58:36;;;;;;;2.05;1.40;;;15.10;59.10;;;;;;5052451;28;20213;-70
2022/11/22 03:01:01;;;;;;;2.47;1.60;;;15.10;59.10;;;;;;5052395;28;20265;-70
2022/11/22 03:03:27;;;;;;;2.30;2.10;;;15.10;59.20;;;;;;5050725;28;20309;-69
2022/11/22 03:05:52;;;;;;;1.95;1.65;;;15.10;59.20;;;;;;5052476;28;20290;-69
2022/11/22 03:08:18;;;;;;;1.70;1.60;;;15.10;59.20;;;;;;5052841;28;20242;-70
2022/11/22 03:10:43;;;;;;;1.98;1.70;;;15.10;59.20;;;;;;5051570;28;20537;-70
2022/11/22 03:13:09;;;;;;;1.67;1.55;;;15.10;59.20;;;;;;5052657;28;20198;-69
2022/11/22 03:15:34;;;;;;;1.73;1.63;;;15.00;59.10;;;;;;5051974;28;20223;-69
2022/11/22 03:18:01;;;;;;;1.60;1.48;;;15.00;59.10;;;;;;5051739;28;20187;-69
2022/11/22 03:20:27;;;;;;;1.80;1.70;;;15.10;59.20;;;;;;5052377;28;20700;-69
2022/11/22 03:22:52;;;;;;;3.55;1.65;;;15.00;59.20;;;;;;5052126;28;20210;-69
2022/11/22 03:25:18;;;;;;;2.50;2.10;;;15.00;59.10;;;;;;5051723;28;20175;-71
2022/11/22 03:27:43;;;;;;;1.63;1.50;;;15.00;59.20;;;;;;5052117;28;20182;-71
2022/11/22 03:30:09;;;;;;;2.50;1.60;;;15.00;59.20;;;;;;5052516;28;20175;-70
2022/11/22 03:32:35;;;;;;;3.20;1.70;;;15.00;59.20;;;;;;5051269;28;20175;-69
2022/11/22 03:35:00;;;;;;;1.48;1.38;;;15.00;59.10;;;;;;5052240;28;20175;-68
2022/11/22 03:37:26;;;;;;;2.65;1.50;;;15.00;59.20;;;;;;5052333;28;20702;-69
2022/11/22 03:39:51;;;;;;;1.85;1.60;;;15.00;59.10;;;;;;5051407;28;20167;-70
2022/11/22 03:42:17;;;;;;;1.80;1.40;;;15.00;59.20;;;;;;5052395;28;20211;-70
2022/11/22 03:44:42;;;;;;;2.22;1.88;;;15.00;59.20;;;;;;5053479;28;20182;-70
2022/11/22 03:47:08;;;;;;;2.10;1.90;;;15.00;59.20;;;;;;5055060;28;20176;-70
2022/11/22 03:49:33;;;;;;;2.33;1.58;;;15.00;59.20;;;;;;5055708;28;20171;-70
2022/11/22 03:51:59;;;;;;;1.88;1.63;;;14.90;59.30;;;;;;5055908;28;20175;-71
2022/11/22 03:54:24;;;;;;;1.88;1.65;;;15.00;59.30;;;;;;5055168;28;20179;-69
2022/11/22 03:56:50;;;;;;;2.50;1.50;;;14.90;59.20;;;;;;5055362;28;20938;-71
2022/11/22 03:59:15;;;;;;;3.30;1.60;;;14.90;59.20;;;;;;5055611;28;20187;-70
2022/11/22 04:01:41;;;;;;;1.83;1.42;;;14.90;59.30;;;;;;5054621;28;20187;-69
2022/11/22 04:04:06;;;;;;;2.17;1.70;;;15.00;59.40;;;;;;5055735;28;20180;-70
2022/11/22 04:06:32;;;;;;;2.45;1.85;;;14.90;59.30;;;;;;5054699;28;20170;-68
2022/11/22 04:08:57;;;;;;;1.73;1.55;;;14.90;59.40;;;;;;5055603;28;20202;-69
2022/11/22 04:11:23;;;;;;;2.03;1.80;;;14.90;59.30;;;;;;5055551;28;20171;-69
2022/11/22 04:16:32;;;;;;;1.95;1.58;;;14.90;59.40;;;;;;5054948;28;20268;-68
2022/11/22 04:19:01;;;;;;;2.08;1.50;;;14.90;59.40;;;;;;5055470;28;20246;-69
2022/11/22 04:21:35;;;;;;;2.13;1.50;;;14.90;59.40;;;;;;5054660;28;20172;-69
2022/11/22 04:26:47;;;;;;;1.60;1.50;;;14.90;59.40;;;;;;5054894;28;20162;-70
2022/11/22 04:29:13;;;;;;;2.25;1.70;;;14.90;59.40;;;;;;5054601;28;20228;-70
2022/11/22 04:34:23;;;;;;;2.15;1.60;;;14.90;59.50;;;;;;5055147;28;20233;-68
2022/11/22 04:36:48;;;;;;;2.28;1.70;;;14.80;59.40;;;;;;5054200;28;20171;-69
2022/11/22 04:39:14;;;;;;;1.85;1.50;;;14.80;59.50;;;;;;5054849;28;20179;-68
2022/11/22 04:41:39;;;;;;;2.17;1.75;;;14.80;59.50;;;;;;5053771;28;20175;-69
2022/11/22 04:46:49;;;;;;;2.17;1.40;;;14.80;59.60;;;;;;5054460;28;20182;-70
2022/11/22 04:49:14;;;;;;;2.60;1.75;;;14.80;59.50;;;;;;5054095;28;20179;-71
2022/11/22 04:54:24;;;;;;;1.60;1.50;;;14.80;59.60;;;;;;5054686;28;20186;-71
2022/11/22 04:56:49;;;;;;;1.50;1.40;;;14.80;59.60;;;;;;5052871;28;20175;-71
2022/11/22 04:59:15;;;;;;;2.50;1.50;;;14.80;59.60;;;;;;5054674;28;20175;-70
2022/11/22 05:01:40;;;;;;;1.63;1.45;;;14.80;59.60;;;;;;5054136;28;20174;-70
2022/11/22 05:04:06;;;;;;;1.55;1.45;;;14.80;59.60;;;;;;5053629;28;20730;-69
2022/11/22 05:06:31;;;;;;;3.75;1.70;;;14.70;59.60;;;;;;5054568;28;20257;-69
2022/11/22 05:08:57;;;;;;;1.60;1.50;;;14.80;59.60;;;;;;5054500;28;20187;-69
2022/11/22 05:11:22;;;;;;;2.50;1.50;;;14.80;59.70;;;;;;5053763;28;20167;-70
2022/11/22 05:13:48;;;;;;;1.83;1.33;;;14.70;59.60;;;;;;5054044;28;20171;-70
2022/11/22 05:16:14;;;;;;;3.17;1.70;;;14.70;59.60;;;;;;5053877;28;20223;-69
2022/11/22 05:18:39;;;;;;;1.90;1.65;;;14.70;59.60;;;;;;5052888;28;20630;-69
2022/11/22 05:21:09;;;;;;;4.13;1.73;;;14.70;59.70;;;;;;5054314;28;20249;-70
2022/11/22 05:23:53;;;;;;;1.55;1.45;;;14.70;59.70;;;;;;5053882;28;20218;-70
2022/11/22 05:26:19;;;;;;;1.55;1.45;;;14.70;59.70;;;;;;5054097;28;20194;-71
2022/11/22 05:28:44;;;;;;;2.40;1.52;;;14.70;59.70;;;;;;5053614;28;20544;-71
2022/11/22 05:31:11;;;;;;;1.90;1.70;;;14.70;59.60;;;;;;5053121;28;20629;-71
2022/11/22 05:33:38;;;;;;;2.10;1.63;;;14.70;59.60;;;;;;5053776;28;20244;-69
2022/11/22 05:36:03;;;;;;;1.75;1.65;;;14.70;59.70;;;;;;5053989;28;20634;-69
2022/11/22 05:38:29;;;;;;;3.28;1.60;;;14.70;59.70;;;;;;5053173;28;20641;-69
2022/11/22 05:40:55;;;;;;;2.25;1.52;;;14.70;59.60;;;;;;5053342;28;20629;-70
2022/11/22 05:43:20;;;;;;;2.17;1.45;;;14.70;59.60;;;;;;5053567;28;20281;-70
2022/11/22 05:45:46;;;;;;;3.17;1.58;;;14.70;59.70;;;;;;5052547;28;20175;-70
2022/11/22 05:48:11;;;;;;;1.10;1.00;;;14.60;59.70;;;;;;5053810;28;20187;-71
2022/11/22 05:50:37;;;;;;;3.20;1.50;;;14.60;59.60;;;;;;5053473;28;20175;-71
2022/11/22 05:53:02;;;;;;;1.70;1.27;;;14.60;59.70;;;;;;5052858;28;20171;-71
2022/11/22 05:55:28;;;;;;;1.85;1.75;;;14.60;59.60;;;;;;5053547;28;20199;-71
2022/11/22 05:57:54;;;;;;;2.03;1.63;;;14.60;59.70;;;;;;5053148;28;20183;-71
2022/11/22 06:00:20;;;;;;;4.25;1.52;;;14.60;59.60;;;;;;5052467;28;20201;-70
2022/11/22 06:02:45;;;;;;;3.67;1.70;;;14.60;59.60;;;;;;5053153;28;20215;-71
2022/11/22 06:05:10;;;;;;;1.55;1.40;;;14.60;59.60;;;;;;5053882;28;20171;-70
2022/11/22 06:07:36;;;;;;;3.60;1.90;;;14.60;59.60;;;;;;5051761;28;20171;-71
2022/11/22 06:10:02;;;;;;;1.63;1.52;;;14.60;59.60;;;;;;5052956;28;20179;-70
2022/11/22 06:12:27;;;;;;;2.53;1.42;;;14.70;59.30;;;;;;5053209;28;20546;-70
2022/11/22 06:14:53;;;;;;;1.80;1.48;;;14.80;59.20;;;;;;5051908;28;20218;-70
2022/11/22 06:17:18;;;;;;;3.00;1.80;;;14.90;59.20;;;;;;5053128;28;20178;-69
2022/11/22 06:19:44;;;;;;;2.53;1.30;;;15.10;59.00;;;;;;5052799;28;20601;-69
2022/11/22 06:22:09;;;;;;;2.33;1.42;;;15.40;58.80;;;;;;5052429;28;20301;-70
2022/11/22 06:24:35;;;;;;;2.67;1.83;;;15.60;58.40;;;;;;5052880;28;20254;-71
2022/11/22 06:27:00;;;;;;;1.73;1.25;;;15.80;58.00;;;;;;5052216;28;20505;-72
2022/11/22 06:29:26;;;;;;;1.77;1.30;;;16.10;57.50;;;;;;5052884;28;20229;-69
2022/11/22 06:31:51;;;;;;;2.35;1.42;;;16.40;56.90;;;;;;5052786;28;20228;-70
2022/11/22 06:34:17;;;;;;;2.72;1.40;;;16.70;56.40;;;;;;5052269;28;20305;-68
2022/11/22 06:36:42;;;;;;;2.60;1.20;;;16.90;55.80;;;;;;5052737;28;20171;-68
2022/11/22 06:39:08;;;;;;;1.50;1.20;;;17.10;55.50;;;;;;5053018;28;20175;-69
2022/11/22 06:41:35;;;;;;;2.15;1.42;;;17.20;55.10;;;;;;5050678;28;20178;-69
2022/11/22 06:44:04;;;;;;;1.98;1.30;;;17.40;55.00;;;;;;5052515;28;20302;-70
2022/11/22 06:46:29;;;;;;;1.52;1.42;;;17.40;54.90;;;;;;5052970;28;20175;-69
2022/11/22 06:48:55;;;;;;;2.35;1.25;;;17.60;54.80;;;;;;5051924;28;20637;-71
2022/11/22 06:51:22;;;;;;;2.70;1.20;;;17.50;54.80;;;;;;5052824;28;20171;-70
2022/11/22 06:53:48;;;;;;;1.98;1.20;;;17.40;55.00;;;;;;5052632;28;20617;-71
2022/11/22 06:56:21;;;;;;;2.05;1.30;;;17.30;55.10;;;;;;5051955;28;20199;-71
2022/11/22 06:58:47;;;;;;;3.00;1.45;;;17.30;55.10;;;;;;5052332;28;20190;-71
2022/11/22 07:01:14;;;;;;;2.00;1.25;;;17.30;55.30;;;;;;5052798;28;20179;-70
2022/11/22 07:03:40;;;;;;;2.28;1.38;;;17.30;55.30;;;;;;5051418;28;20218;-69
2022/11/22 07:06:06;;;;;;;2.75;1.23;;;17.30;55.30;;;;;;5052506;28;20178;-70
2022/11/22 07:08:31;;;;;;;2.40;1.33;;;17.30;55.20;;;;;;5052472;28;20172;-70
2022/11/22 07:11:04;;;;;;;2.03;1.15;;;17.50;55.10;;;;;;5051658;28;20179;-70
2022/11/22 07:13:30;;;;;;;1.13;1.00;;;17.60;54.90;;;;;;5052481;28;20183;-69
2022/11/22 07:15:56;;;;;;;1.95;1.13;;;17.70;54.80;;;;;;5052356;28;20238;-70
2022/11/22 07:18:22;;;;;;;3.03;1.23;;;17.80;54.60;;;;;;5051775;28;20175;-68
2022/11/22 07:20:47;;;;;;;3.30;1.85;;;17.80;54.50;;;;;;5055510;28;20179;-68
2022/11/22 07:23:14;;;;;;;1.38;1.02;;;17.90;54.40;;;;;;5057864;28;20708;-67
2022/11/22 07:25:45;;;;;;;5.22;1.52;;;17.80;54.50;;;;;;5055595;28;20217;-68
2022/11/22 07:28:12;;;;;;;2.50;1.48;;;17.70;54.80;;;;;;5056414;28;20229;-67
2022/11/22 07:30:37;;;;;;;3.95;1.73;;;17.70;54.90;;;;;;5055149;28;21037;-68
2022/11/22 07:33:03;;;;;;;3.92;1.60;;;17.70;55.10;;;;;;5056195;28;20184;-68
2022/11/22 07:35:28;;;;;;;3.40;1.60;;;17.80;55.10;;;;;;5056930;28;20244;-69
2022/11/22 07:37:54;;;;;;;2.85;1.50;;;17.90;55.00;;;;;;5055028;28;20309;-68
2022/11/22 07:40:19;;;;;;;7.38;1.63;;;18.00;54.90;;;;;;5055912;28;20537;-68
2022/11/22 07:42:45;;;;;;;1.88;1.35;;;18.00;54.80;;;;;;5055769;28;20219;-68
2022/11/22 07:45:10;;;;;;;3.67;1.90;;;18.10;54.80;;;;;;5055298;28;20216;-67
2022/11/22 07:47:36;;;;;;;1.60;1.15;;;18.20;54.70;;;;;;5055630;28;20175;-64
2022/11/22 07:50:01;;;;;;;3.92;1.40;;;18.20;54.60;;;;;;5056214;28;20182;-66
2022/11/22 07:52:27;;;;;;;2.95;1.50;;;18.20;54.50;;;;;;5055164;28;20202;-65
2022/11/22 07:54:52;;;;;;;6.32;2.10;;;18.20;54.50;;;;;;5055398;28;20174;-66
2022/11/22 07:57:18;;;;;;;3.67;1.60;;;18.10;54.60;;;;;;5056006;28;20523;-70
2022/11/22 07:59:46;;;;;;;3.70;1.63;;;18.10;54.60;;;;;;5054841;28;20278;-70
2022/11/22 08:02:12;;;;;;;4.22;1.65;;;18.10;54.80;;;;;;5055759;28;20202;-69
2022/11/22 08:04:37;;;;;;;4.97;1.77;;;18.10;54.60;;;;;;5055555;28;20270;-69
2022/11/22 08:07:03;;;;;;;2.67;1.40;;;18.20;54.60;;;;;;5054827;28;20588;-69
2022/11/22 08:09:28;;;;;;;4.43;1.58;;;18.30;54.40;;;;;;5055790;28;20179;-69
2022/11/22 08:11:54;;;;;;;2.58;1.30;;;18.30;54.30;;;;;;5055285;28;20179;-70
2022/11/22 08:14:20;;;;;;;2.97;1.60;;;18.30;54.20;;;;;;5054968;28;20629;-69
2022/11/22 08:16:45;;;;;;;2.22;1.55;;;18.30;54.20;;;;;;5054836;28;20292;-70
2022/11/22 08:19:16;;;;;;;2.88;1.30;;;18.40;54.20;;;;;;5055456;28;20187;-69
2022/11/22 08:21:41;;;;;;;2.80;1.20;;;18.40;54.10;;;;;;5054385;28;20175;-69
2022/11/22 08:24:07;;;;;;;2.80;1.27;;;18.50;54.10;;;;;;5055761;28;20226;-70
2022/11/22 08:26:33;;;;;;;3.33;1.70;;;18.50;54.00;;;;;;5054677;28;20244;-70
2022/11/22 08:28:58;;;;;;;4.13;1.48;;;18.50;54.00;;;;;;5055091;28;20171;-70
2022/11/22 08:31:24;;;;;;;2.58;1.23;;;18.50;53.90;;;;;;5054066;28;20179;-68
2022/11/22 08:33:51;;;;;;;1.90;1.10;;;18.50;53.90;;;;;;5052935;28;20171;-68
2022/11/22 08:36:17;;;;;;;3.97;1.25;;;18.60;53.90;;;;;;5055004;28;20380;-67
2022/11/22 08:38:42;;;;;;;2.38;1.42;;;18.60;53.80;;;;;;5054481;28;20183;-68
2022/11/22 08:41:08;;;;;;;4.70;1.40;;;18.60;53.80;;;;;;5054537;28;20171;-69
2022/11/22 08:43:34;;;;;;;2.75;1.63;;;18.60;53.80;;;;;;5054562;28;20242;-69
2022/11/22 08:46:00;;;;;;;3.30;1.60;;;18.60;53.70;;;;;;5054934;28;20221;-70
2022/11/22 08:48:26;;;;;;;5.43;1.58;;;18.70;53.70;;;;;;5054215;28;20182;-69
2022/11/22 08:50:52;;;;;;;3.05;1.38;;;18.70;53.80;;;;;;5054414;28;20171;-70
2022/11/22 08:53:18;;;;;;;3.88;1.20;;;18.70;53.80;;;;;;5054653;28;20183;-71
2022/11/22 08:55:44;;;;;;;2.85;1.13;;;18.80;53.60;;;;;;5053556;28;20186;-70
2022/11/22 08:58:10;;;;;;;1.30;1.20;;;18.80;53.60;;;;;;5054793;28;20209;-71
2022/11/22 09:00:35;;;;;;;1.98;1.20;;;18.80;53.60;;;;;;5054172;28;20642;-69
2022/11/22 09:03:01;;;;;;;2.92;1.05;;;18.80;53.60;;;;;;5053642;28;20301;-69
2022/11/22 09:05:26;;;;;;;3.83;1.40;;;18.80;53.50;;;;;;5054450;28;20257;-69
2022/11/22 09:07:52;;;;;;;2.83;0.98;;;18.80;53.50;;;;;;5054130;28;20266;-69
2022/11/22 09:10:17;;;;;;;2.55;1.23;;;18.90;53.50;;;;;;5053876;28;20206;-70
2022/11/22 09:12:44;;;;;;;1.42;1.15;;;18.80;53.40;;;;;;5054013;28;20266;-69
2022/11/22 09:15:10;;;;;;;2.42;1.17;;;18.80;53.60;;;;;;5054182;28;20273;-68
2022/11/22 09:17:35;;;;;;;1.33;0.85;;;18.70;53.80;;;;;;5053214;28;20657;-68
2022/11/22 09:20:01;;;;;;;2.33;1.40;;;18.50;53.90;;;;;;5054259;28;20241;-68
2022/11/22 09:22:26;;;;;;;3.17;1.23;;;18.50;54.20;;;;;;5054035;28;20731;-69
2022/11/22 09:24:52;;;;;;;3.08;1.38;;;18.40;54.30;;;;;;5053379;28;20186;-71
2022/11/22 09:27:18;;;;;;;2.67;1.58;;;18.40;54.30;;;;;;5054186;28;20194;-70
2022/11/22 09:29:44;;;;;;;3.20;1.27;;;18.40;54.40;;;;;;5053554;28;20519;-70
2022/11/22 09:32:09;;;;;;;2.13;1.17;;;18.50;54.50;;;;;;5053393;28;20270;-69
2022/11/22 09:34:35;;;;;;;1.77;1.27;;;18.40;54.30;;;;;;5053651;28;20563;-68
2022/11/22 09:37:00;;;;;;;1.38;1.10;;;18.40;54.30;;;;;;5053099;28;20266;-68
2022/11/22 09:39:26;;;;;;;1.90;1.10;;;18.50;54.30;;;;;;5058149;28;20171;-68
2022/11/22 09:42:19;;;;;;;3.35;1.42;;;18.50;54.30;;;;;;5068570;28;20178;-70
2022/11/22 09:45:02;;;;;;;1.50;1.27;;;18.50;54.20;;;;;;5033080;28;20259;-69
2022/11/22 09:48:36;;;;;;;2.65;1.45;;;18.60;54.20;;;;;;5045829;28;20187;-69
2022/11/22 09:51:08;;;;;;;1.80;1.40;;;18.60;54.00;;;;;;4997341;28;20192;-70
2022/11/22 09:53:39;;;;;;;1.55;1.00;;;18.70;54.10;;;;;;5039117;28;20191;-70
2022/11/22 09:56:09;;;;;;;2.10;1.15;;;18.60;54.10;;;;;;5062251;28;20629;-70
2022/11/22 09:59:14;;;;;;;2.55;1.10;;;18.50;54.20;;;;;;5051235;28;20182;-70
2022/11/22 10:02:02;;;;;;;2.15;1.15;;;18.40;54.40;;;;;;5052748;28;20211;-69
2022/11/22 10:04:42;;;;;;;1.65;1.20;;;18.30;54.60;;;;;;5052108;28;20403;-68
2022/11/22 10:07:17;;;;;;;1.77;1.30;;;18.30;54.80;;;;;;5050622;28;20726;-67
2022/11/22 10:10:06;;;;;;;3.42;1.40;;;18.30;54.70;;;;;;5051820;28;20182;-70
2022/11/22 10:12:55;;;;;;;3.83;1.10;;;18.30;54.70;;;;;;5050990;28;20174;-68
2022/11/22 10:15:42;;;;;;;2.88;1.20;;;18.30;54.70;;;;;;5051718;28;20234;-68
2022/11/22 10:18:15;;;;;;;2.97;1.30;;;18.40;55.30;;;;;;5052992;28;20563;-68
2022/11/22 10:20:41;;;;;;;3.67;1.15;;;18.50;54.60;;;;;;5050683;28;20179;-71
2022/11/22 10:23:14;;;;;;;2.22;1.33;;;18.50;54.50;;;;;;5051753;28;20264;-72
2022/11/22 10:25:42;;;;;;;2.38;1.38;;;18.50;54.30;;;;;;5051816;28;20174;-69
2022/11/22 10:28:17;;;;;;;3.58;1.67;;;18.40;54.30;;;;;;5051011;28;20183;-69
2022/11/22 10:31:15;;;;;;;2.75;1.17;;;18.30;54.40;;;;;;5051707;28;20647;-68
2022/11/22 10:34:00;;;;;;;3.92;1.58;;;18.10;54.50;;;;;;5052147;28;20186;-68
2022/11/22 10:36:41;;;;;;;4.25;1.50;;;18.10;54.80;;;;;;5053039;28;20274;-69
2022/11/22 10:39:24;;;;;;;2.47;1.20;;;18.00;54.90;;;;;;5053128;28;20262;-69
2022/11/22 10:42:02;;;;;;;2.00;1.20;;;17.90;55.10;;;;;;5051028;28;20902;-70
2022/11/22 10:44:30;;;;;;;2.25;1.15;;;18.00;55.10;;;;;;5053077;28;20187;-69
2022/11/22 10:47:08;;;;;;;2.45;1.48;;;17.90;55.10;;;;;;5052935;28;20316;-69
2022/11/22 10:49:36;;;;;;;1.60;1.13;;;17.90;55.10;;;;;;5051838;28;20174;-69
2022/11/22 10:52:17;;;;;;;2.92;1.10;;;18.00;55.00;;;;;;5052804;28;20171;-69
2022/11/22 10:55:08;;;;;;;3.17;1.00;;;18.00;54.90;;;;;;5053387;28;20183;-69
2022/11/22 10:57:57;;;;;;;2.92;1.00;;;18.10;54.90;;;;;;5055399;28;20664;-69
2022/11/22 11:00:23;;;;;;;1.83;1.38;;;18.10;54.70;;;;;;5057154;28;20183;-69
2022/11/22 11:03:25;;;;;;;1.52;1.02;;;18.20;55.20;;;;;;5054689;28;20203;-69
2022/11/22 11:05:59;;;;;;;2.15;1.00;;;18.30;54.40;;;;;;5055676;28;20178;-69
2022/11/22 11:08:37;;;;;;;2.55;1.73;;;18.30;54.30;;;;;;5055956;28;20203;-69
2022/11/22 11:11:03;;;;;;;2.35;1.10;;;18.40;54.30;;;;;;5055599;28;20182;-68
2022/11/22 11:13:32;;;;;;;3.65;1.30;;;18.40;54.20;;;;;;5055626;28;20178;-70
2022/11/22 11:15:59;;;;;;;2.42;1.02;;;18.40;54.00;;;;;;5055776;28;20275;-70
2022/11/22 11:18:51;;;;;;;2.22;0.82;;;18.40;54.00;;;;;;5055282;28;20545;-70
2022/11/22 11:21:16;;;;;;;1.77;1.05;;;18.50;54.00;;;;;;5052292;28;20186;-70
2022/11/22 11:23:42;;;;;;;2.03;1.10;;;18.50;53.80;;;;;;5055320;28;20203;-70
2022/11/22 11:26:29;;;;;;;0.85;0.73;;;18.50;53.80;;;;;;5056288;28;20338;-69
2022/11/22 11:29:17;;;;;;;2.92;1.10;;;18.60;53.80;;;;;;5055106;28;20179;-69
2022/11/22 11:31:47;;;;;;;0.95;0.85;;;18.60;53.70;;;;;;5055253;28;20185;-68
2022/11/22 11:34:26;;;;;;;1.70;1.17;;;18.60;53.70;;;;;;5056416;28;20179;-68
2022/11/22 11:36:56;;;;;;;1.08;0.90;;;18.60;53.50;;;;;;5055355;28;20179;-70
2022/11/22 11:39:23;;;;;;;1.70;1.10;;;18.70;53.60;;;;;;5056181;28;20202;-69
2022/11/22 11:41:49;;;;;;;1.60;1.10;;;18.60;53.50;;;;;;5054594;28;20629;-70
2022/11/22 11:44:35;;;;;;;2.03;0.95;;;18.70;53.60;;;;;;5055190;28;20668;-69
2022/11/22 11:47:01;;;;;;;1.83;0.90;;;18.60;53.50;;;;;;5055851;28;20171;-68
2022/11/22 11:49:28;;;;;;;1.33;0.93;;;18.50;53.80;;;;;;5055958;28;20233;-69
2022/11/22 11:51:56;;;;;;;1.52;0.80;;;18.40;54.00;;;;;;5054913;28;20220;-68
2022/11/22 11:54:42;;;;;;;1.27;0.90;;;18.30;54.10;;;;;;5055812;28;20696;-69
2022/11/22 11:57:14;;;;;;;2.40;1.58;;;18.30;54.30;;;;;;5055119;28;20185;-69
2022/11/22 11:59:40;;;;;;;1.63;0.80;;;18.20;54.30;;;;;;5054905;28;20233;-70
2022/11/22 12:02:22;;;;;;;1.23;0.70;;;18.20;54.40;;;;;;5055695;28;20175;-69
2022/11/22 12:04:51;;;;;;;1.02;0.80;;;18.20;54.40;;;;;;5053314;28;20194;-69
2022/11/22 12:07:23;;;;;;;1.60;1.00;;;18.30;54.40;;;;;;5054557;28;20297;-68
2022/11/22 12:09:49;;;;;;;2.03;0.88;;;18.20;54.40;;;;;;5055096;28;20662;-69
2022/11/22 12:12:36;;;;;;;1.98;1.13;;;18.30;54.40;;;;;;5054659;28;20627;-69
2022/11/22 12:15:13;;;;;;;1.60;0.95;;;18.40;54.30;;;;;;5055298;28;20222;-69
2022/11/22 12:17:51;;;;;;;1.40;1.10;;;18.40;54.10;;;;;;5054087;28;20175;-71
2022/11/22 12:20:44;;;;;;;1.80;0.98;;;18.40;54.20;;;;;;5053462;28;20540;-70
2022/11/22 12:23:23;;;;;;;1.13;1.02;;;18.30;54.20;;;;;;5055212;28;20233;-69
2022/11/22 12:25:48;;;;;;;1.38;0.98;;;18.20;54.50;;;;;;5054307;28;20190;-68
2022/11/22 12:28:19;;;;;;;2.17;0.70;;;18.10;54.60;;;;;;5054210;28;20183;-68
2022/11/22 12:30:52;;;;;;;2.00;1.02;;;18.10;54.60;;;;;;5054738;28;20179;-68
2022/11/22 12:33:19;;;;;;;1.95;0.88;;;18.10;54.80;;;;;;5053350;28;20209;-69
2022/11/22 12:35:45;;;;;;;1.08;0.80;;;18.10;54.80;;;;;;5053583;28;20182;-69
2022/11/22 12:38:19;;;;;;;1.20;0.82;;;18.10;54.90;;;;;;5053645;28;20225;-69
2022/11/22 12:40:50;;;;;;;1.55;0.75;;;18.10;54.80;;;;;;5052935;28;20258;-67
2022/11/22 12:43:19;;;;;;;1.20;0.90;;;18.20;54.70;;;;;;5053606;28;20730;-67
2022/11/22 12:45:48;;;;;;;1.45;0.90;;;18.30;54.60;;;;;;5054624;28;20202;-67
2022/11/22 12:48:20;;;;;;;1.48;0.98;;;18.40;54.50;;;;;;5052994;28;20205;-67
2022/11/22 12:50:54;;;;;;;2.08;0.77;;;18.50;54.40;;;;;;5053462;28;20533;-68
2022/11/22 12:53:30;;;;;;;1.92;0.70;;;18.60;54.30;;;;;;5053717;28;20171;-68
2022/11/22 12:56:09;;;;;;;1.58;1.00;;;18.60;54.30;;;;;;5052917;28;20190;-67
2022/11/22 12:59:10;;;;;;;1.60;0.80;;;18.50;54.40;;;;;;5053254;28;20229;-68
2022/11/22 13:01:41;;;;;;;1.25;0.80;;;18.30;54.50;;;;;;5053696;28;20179;-68
2022/11/22 13:04:09;;;;;;;0.88;0.85;;;18.20;54.60;;;;;;5054561;28;20303;-68
2022/11/22 13:06:55;;;;;;;1.20;0.68;;;18.20;54.70;;;;;;5054095;28;20171;-67
2022/11/22 13:09:29;;;;;;;2.72;1.00;;;18.10;54.80;;;;;;5052443;28;20187;-67
2022/11/22 13:11:58;;;;;;;0.70;0.70;;;18.00;54.90;;;;;;5053069;28;20186;-68